首页
METAR-TAF:

METAR-TAF

机场 :

威廉斯波特, 宾夕法尼亚州, 美国

纬度: 41-14-30N, 经度: 076-55-15W, 海拔: 161米

当前天气观测

该预报发布于53分钟前的15:54 UTC
风速4节,风向东南
温度 27°C
湿度 54%
气压 1017 hPa
能見度: 16.1公里
天空无云

METAR: KIPT 261554Z 13004KT 10SM CLR 27/17 A3003 RMK AO2 SLP167 T02670172

时间: 12:47 (16:47 UTC)

预报

该预报发布于1小时和9分钟前的15:38 UTC
预报有效从26日的 16点(UTC)到 27日的 12点(UTC)
风速4节,风向多变
能見度: 10公里
散云层高于6000英尺
从 26日的 1700点(UTC)
风速7节,风向西
能見度: 10公里
散云层高于5000英尺
从 27日的 0000点(UTC)
风速4节,风向西转西北
能見度: 10公里
散云层高于5000英尺

TAF: KIPT 261538Z 2616/2712 VRB04KT P6SM SCT060 FM261700 26007KT P6SM SCT050 FM270000 30004KT P6SM SCT050

超过4000个机场的气象观测和天气预报(METAR&TAF报告)。

可查询的气象台以黄色和红色小点在地图上表示。

将鼠标移到小点上方,可查看气象台名称。

然后点击查看天气观测和预报。

如需切换地图:点击带黑十字的绿色按钮放大地图;点击带横线的绿色按钮缩小地图;或者点击绿色箭头查看邻近地区的地图。


METAR-TAF: